sensor_id;sensor_type;location;lat;lon;timestamp;temperature;humidity
2447;DHT22;26430;48.818;9.244;2023-04-03T00:01:36;5.10;99.90
2447;DHT22;26430;48.818;9.244;2023-04-03T00:04:06;5.10;99.90
2447;DHT22;26430;48.818;9.244;2023-04-03T00:06:32;5.10;99.90
2447;DHT22;26430;48.818;9.244;2023-04-03T00:08:58;5.10;99.90
2447;DHT22;26430;48.818;9.244;2023-04-03T00:11:23;5.00;99.90
2447;DHT22;26430;48.818;9.244;2023-04-03T00:13:49;5.00;99.90
2447;DHT22;26430;48.818;9.244;2023-04-03T00:16:15;5.00;99.90
2447;DHT22;26430;48.818;9.244;2023-04-03T00:18:41;5.00;99.90
2447;DHT22;26430;48.818;9.244;2023-04-03T00:21:07;5.00;99.90
2447;DHT22;26430;48.818;9.244;2023-04-03T00:23:33;5.00;99.90
2447;DHT22;26430;48.818;9.244;2023-04-03T00:25:59;5.00;99.90
2447;DHT22;26430;48.818;9.244;2023-04-03T00:28:25;5.00;99.90
2447;DHT22;26430;48.818;9.244;2023-04-03T00:30:52;5.00;99.90
2447;DHT22;26430;48.818;9.244;2023-04-03T00:33:18;5.00;99.90
2447;DHT22;26430;48.818;9.244;2023-04-03T00:35:47;5.20;99.90
2447;DHT22;26430;48.818;9.244;2023-04-03T00:38:13;5.10;99.90
2447;DHT22;26430;48.818;9.244;2023-04-03T00:40:42;5.00;99.90
2447;DHT22;26430;48.818;9.244;2023-04-03T00:43:18;5.00;99.90
2447;DHT22;26430;48.818;9.244;2023-04-03T00:45:46;5.00;99.90
2447;DHT22;26430;48.818;9.244;2023-04-03T00:48:19;5.00;99.90
2447;DHT22;26430;48.818;9.244;2023-04-03T00:50:46;5.00;99.90
2447;DHT22;26430;48.818;9.244;2023-04-03T00:53:18;4.90;99.90
2447;DHT22;26430;48.818;9.244;2023-04-03T00:55:47;5.00;99.90
2447;DHT22;26430;48.818;9.244;2023-04-03T00:58:14;5.10;99.90
2447;DHT22;26430;48.818;9.244;2023-04-03T01:00:43;5.00;99.90
2447;DHT22;26430;48.818;9.244;2023-04-03T01:03:10;4.90;99.90
2447;DHT22;26430;48.818;9.244;2023-04-03T01:05:36;5.00;99.90
2447;DHT22;26430;48.818;9.244;2023-04-03T01:08:01;5.00;99.90
2447;DHT22;26430;48.818;9.244;2023-04-03T01:10:27;5.00;99.90
2447;DHT22;26430;48.818;9.244;2023-04-03T01:12:53;5.00;99.90
2447;DHT22;26430;48.818;9.244;2023-04-03T01:15:24;5.00;99.90
2447;DHT22;26430;48.818;9.244;2023-04-03T01:17:55;5.10;99.90
2447;DHT22;26430;48.818;9.244;2023-04-03T01:25:45;4.90;99.90
2447;DHT22;26430;48.818;9.244;2023-04-03T01:28:14;4.90;99.90
2447;DHT22;26430;48.818;9.244;2023-04-03T01:33:16;4.80;99.90
2447;DHT22;26430;48.818;9.244;2023-04-03T01:35:42;4.80;99.90
2447;DHT22;26430;48.818;9.244;2023-04-03T01:38:07;4.70;99.90
2447;DHT22;26430;48.818;9.244;2023-04-03T01:40:33;4.70;99.90
2447;DHT22;26430;48.818;9.244;2023-04-03T01:42:59;4.70;99.90
2447;DHT22;26430;48.818;9.244;2023-04-03T01:45:24;4.70;99.90
2447;DHT22;26430;48.818;9.244;2023-04-03T01:47:50;4.70;99.90
2447;DHT22;26430;48.818;9.244;2023-04-03T01:50:16;4.70;99.90
2447;DHT22;26430;48.818;9.244;2023-04-03T01:52:41;4.60;99.90
2447;DHT22;26430;48.818;9.244;2023-04-03T01:55:07;4.60;99.90
2447;DHT22;26430;48.818;9.244;2023-04-03T01:57:33;4.60;99.90
2447;DHT22;26430;48.818;9.244;2023-04-03T01:59:58;4.60;99.90
2447;DHT22;26430;48.818;9.244;2023-04-03T02:02:24;4.50;99.90
2447;DHT22;26430;48.818;9.244;2023-04-03T02:04:50;4.60;99.90
2447;DHT22;26430;48.818;9.244;2023-04-03T02:07:16;4.60;99.90
2447;DHT22;26430;48.818;9.244;2023-04-03T02:09:41;4.70;99.90
2447;DHT22;26430;48.818;9.244;2023-04-03T02:12:07;4.70;99.90
2447;DHT22;26430;48.818;9.244;2023-04-03T02:14:33;4.70;99.90
2447;DHT22;26430;48.818;9.244;2023-04-03T02:17:00;4.60;99.90
2447;DHT22;26430;48.818;9.244;2023-04-03T02:19:30;4.70;99.90
2447;DHT22;26430;48.818;9.244;2023-04-03T02:21:56;4.60;99.90
2447;DHT22;26430;48.818;9.244;2023-04-03T02:24:22;4.70;99.90
2447;DHT22;26430;48.818;9.244;2023-04-03T02:26:47;4.50;99.90
2447;DHT22;26430;48.818;9.244;2023-04-03T02:29:13;4.40;99.90
2447;DHT22;26430;48.818;9.244;2023-04-03T02:31:39;4.50;99.90
2447;DHT22;26430;48.818;9.244;2023-04-03T02:34:04;4.60;99.90
2447;DHT22;26430;48.818;9.244;2023-04-03T02:36:30;4.50;99.90
2447;DHT22;26430;48.818;9.244;2023-04-03T02:38:56;4.60;99.90
2447;DHT22;26430;48.818;9.244;2023-04-03T02:41:22;4.70;99.90
2447;DHT22;26430;48.818;9.244;2023-04-03T02:43:47;4.70;99.90
2447;DHT22;26430;48.818;9.244;2023-04-03T02:46:13;4.70;99.90
2447;DHT22;26430;48.818;9.244;2023-04-03T02:48:40;4.70;99.90
2447;DHT22;26430;48.818;9.244;2023-04-03T02:51:06;4.70;99.90
2447;DHT22;26430;48.818;9.244;2023-04-03T02:53:31;4.70;99.90
2447;DHT22;26430;48.818;9.244;2023-04-03T02:55:57;4.80;99.90
2447;DHT22;26430;48.818;9.244;2023-04-03T02:58:23;4.70;99.90
2447;DHT22;26430;48.818;9.244;2023-04-03T03:00:48;4.80;99.90
2447;DHT22;26430;48.818;9.244;2023-04-03T03:03:14;4.70;99.90
2447;DHT22;26430;48.818;9.244;2023-04-03T03:05:40;4.50;99.90
2447;DHT22;26430;48.818;9.244;2023-04-03T03:08:05;4.60;99.90
2447;DHT22;26430;48.818;9.244;2023-04-03T03:10:31;4.50;99.90
2447;DHT22;26430;48.818;9.244;2023-04-03T03:12:57;4.50;99.90
2447;DHT22;26430;48.818;9.244;2023-04-03T03:15:22;4.50;99.90
2447;DHT22;26430;48.818;9.244;2023-04-03T03:17:48;4.50;99.90
2447;DHT22;26430;48.818;9.244;2023-04-03T03:20:13;4.80;99.90
2447;DHT22;26430;48.818;9.244;2023-04-03T03:22:40;4.90;99.90
2447;DHT22;26430;48.818;9.244;2023-04-03T03:25:06;4.90;99.90
2447;DHT22;26430;48.818;9.244;2023-04-03T03:27:32;4.90;99.90
2447;DHT22;26430;48.818;9.244;2023-04-03T03:29:58;4.90;99.90
2447;DHT22;26430;48.818;9.244;2023-04-03T03:32:23;5.00;99.90
2447;DHT22;26430;48.818;9.244;2023-04-03T03:34:49;4.90;99.90
2447;DHT22;26430;48.818;9.244;2023-04-03T03:37:15;4.80;99.90
2447;DHT22;26430;48.818;9.244;2023-04-03T03:39:40;4.70;99.90
2447;DHT22;26430;48.818;9.244;2023-04-03T03:42:06;4.80;99.90
2447;DHT22;26430;48.818;9.244;2023-04-03T03:44:31;4.80;99.90
2447;DHT22;26430;48.818;9.244;2023-04-03T03:46:57;4.90;99.90
2447;DHT22;26430;48.818;9.244;2023-04-03T03:49:22;4.90;99.90
2447;DHT22;26430;48.818;9.244;2023-04-03T03:51:49;5.00;99.90
2447;DHT22;26430;48.818;9.244;2023-04-03T03:54:16;5.00;99.90
2447;DHT22;26430;48.818;9.244;2023-04-03T03:56:41;5.10;99.90
2447;DHT22;26430;48.818;9.244;2023-04-03T03:59:07;5.00;99.90
2447;DHT22;26430;48.818;9.244;2023-04-03T04:01:33;5.00;99.90
2447;DHT22;26430;48.818;9.244;2023-04-03T04:03:58;5.00;99.90
2447;DHT22;26430;48.818;9.244;2023-04-03T04:06:24;5.10;99.90
2447;DHT22;26430;48.818;9.244;2023-04-03T04:08:50;5.10;99.90
2447;DHT22;26430;48.818;9.244;2023-04-03T04:11:15;4.80;99.90
2447;DHT22;26430;48.818;9.244;2023-04-03T04:13:41;4.70;99.90
2447;DHT22;26430;48.818;9.244;2023-04-03T04:16:07;4.80;99.90
2447;DHT22;26430;48.818;9.244;2023-04-03T04:18:33;5.00;99.90
2447;DHT22;26430;48.818;9.244;2023-04-03T04:20:59;5.00;99.90
2447;DHT22;26430;48.818;9.244;2023-04-03T04:23:24;5.00;99.90
2447;DHT22;26430;48.818;9.244;2023-04-03T04:25:50;5.00;99.90
2447;DHT22;26430;48.818;9.244;2023-04-03T04:28:16;5.00;99.90
2447;DHT22;26430;48.818;9.244;2023-04-03T04:30:42;5.00;99.90
2447;DHT22;26430;48.818;9.244;2023-04-03T04:33:08;5.00;99.90
2447;DHT22;26430;48.818;9.244;2023-04-03T04:35:33;5.00;99.90
2447;DHT22;26430;48.818;9.244;2023-04-03T04:37:59;5.00;99.90
2447;DHT22;26430;48.818;9.244;2023-04-03T04:40:25;5.00;99.90
2447;DHT22;26430;48.818;9.244;2023-04-03T04:42:51;4.90;99.90
2447;DHT22;26430;48.818;9.244;2023-04-03T04:45:17;4.80;99.90
2447;DHT22;26430;48.818;9.244;2023-04-03T04:47:42;4.80;99.90
2447;DHT22;26430;48.818;9.244;2023-04-03T04:50:08;4.90;99.90
2447;DHT22;26430;48.818;9.244;2023-04-03T04:52:34;5.00;99.90
2447;DHT22;26430;48.818;9.244;2023-04-03T04:55:00;5.10;99.90
2447;DHT22;26430;48.818;9.244;2023-04-03T04:57:25;5.10;99.90
2447;DHT22;26430;48.818;9.244;2023-04-03T04:59:51;5.10;99.90
2447;DHT22;26430;48.818;9.244;2023-04-03T05:02:17;5.10;99.90
2447;DHT22;26430;48.818;9.244;2023-04-03T05:04:42;5.00;99.90
2447;DHT22;26430;48.818;9.244;2023-04-03T05:07:08;5.00;99.90
2447;DHT22;26430;48.818;9.244;2023-04-03T05:09:34;5.10;99.90
2447;DHT22;26430;48.818;9.244;2023-04-03T05:11:59;5.00;99.90
2447;DHT22;26430;48.818;9.244;2023-04-03T05:14:25;5.00;99.90
2447;DHT22;26430;48.818;9.244;2023-04-03T05:16:51;5.10;99.90
2447;DHT22;26430;48.818;9.244;2023-04-03T05:19:20;5.10;99.90
2447;DHT22;26430;48.818;9.244;2023-04-03T05:21:46;5.00;99.90
2447;DHT22;26430;48.818;9.244;2023-04-03T05:24:12;5.00;99.90
2447;DHT22;26430;48.818;9.244;2023-04-03T05:26:38;5.00;99.90
2447;DHT22;26430;48.818;9.244;2023-04-03T05:29:04;5.10;99.90
2447;DHT22;26430;48.818;9.244;2023-04-03T05:31:29;5.10;99.90
2447;DHT22;26430;48.818;9.244;2023-04-03T05:33:56;5.00;99.90
2447;DHT22;26430;48.818;9.244;2023-04-03T05:36:22;5.00;99.90
2447;DHT22;26430;48.818;9.244;2023-04-03T05:38:48;4.90;99.90
2447;DHT22;26430;48.818;9.244;2023-04-03T05:41:14;4.80;99.90
2447;DHT22;26430;48.818;9.244;2023-04-03T05:43:40;4.80;99.90
2447;DHT22;26430;48.818;9.244;2023-04-03T05:46:14;4.80;99.90
2447;DHT22;26430;48.818;9.244;2023-04-03T05:48:40;4.80;99.90
2447;DHT22;26430;48.818;9.244;2023-04-03T05:51:06;4.70;99.90
2447;DHT22;26430;48.818;9.244;2023-04-03T05:53:35;4.70;99.90
2447;DHT22;26430;48.818;9.244;2023-04-03T05:56:02;4.70;99.90
2447;DHT22;26430;48.818;9.244;2023-04-03T05:58:28;4.70;99.90
2447;DHT22;26430;48.818;9.244;2023-04-03T06:00:53;4.80;99.90
2447;DHT22;26430;48.818;9.244;2023-04-03T06:03:19;4.70;99.90
2447;DHT22;26430;48.818;9.244;2023-04-03T06:05:45;4.80;99.90
2447;DHT22;26430;48.818;9.244;2023-04-03T06:08:11;4.90;99.90
2447;DHT22;26430;48.818;9.244;2023-04-03T06:10:38;4.90;99.90
2447;DHT22;26430;48.818;9.244;2023-04-03T06:13:04;5.00;99.90
2447;DHT22;26430;48.818;9.244;2023-04-03T06:15:30;5.00;99.90
2447;DHT22;26430;48.818;9.244;2023-04-03T06:17:55;5.00;99.90
2447;DHT22;26430;48.818;9.244;2023-04-03T06:20:21;5.00;99.90
2447;DHT22;26430;48.818;9.244;2023-04-03T06:22:47;4.90;99.90
2447;DHT22;26430;48.818;9.244;2023-04-03T06:25:13;4.90;99.90
2447;DHT22;26430;48.818;9.244;2023-04-03T06:27:39;5.00;99.90
2447;DHT22;26430;48.818;9.244;2023-04-03T06:30:06;4.90;99.90
2447;DHT22;26430;48.818;9.244;2023-04-03T06:32:32;5.00;99.90
2447;DHT22;26430;48.818;9.244;2023-04-03T06:35:00;5.00;99.90
2447;DHT22;26430;48.818;9.244;2023-04-03T06:37:26;5.20;99.90
2447;DHT22;26430;48.818;9.244;2023-04-03T06:39:53;5.40;99.90
2447;DHT22;26430;48.818;9.244;2023-04-03T06:42:19;5.20;99.90
2447;DHT22;26430;48.818;9.244;2023-04-03T06:44:44;5.30;99.90
2447;DHT22;26430;48.818;9.244;2023-04-03T06:47:12;5.30;99.90
2447;DHT22;26430;48.818;9.244;2023-04-03T06:49:38;5.20;99.90
2447;DHT22;26430;48.818;9.244;2023-04-03T06:52:04;5.20;99.90
2447;DHT22;26430;48.818;9.244;2023-04-03T06:54:31;5.20;99.90
2447;DHT22;26430;48.818;9.244;2023-04-03T06:56:56;5.20;99.90
2447;DHT22;26430;48.818;9.244;2023-04-03T06:59:22;5.20;99.90
2447;DHT22;26430;48.818;9.244;2023-04-03T07:01:48;5.10;99.90
2447;DHT22;26430;48.818;9.244;2023-04-03T07:04:14;5.10;99.90
2447;DHT22;26430;48.818;9.244;2023-04-03T07:06:40;5.20;99.90
2447;DHT22;26430;48.818;9.244;2023-04-03T07:09:07;5.40;99.90
2447;DHT22;26430;48.818;9.244;2023-04-03T07:11:33;5.40;99.90
2447;DHT22;26430;48.818;9.244;2023-04-03T07:13:58;5.50;99.90
2447;DHT22;26430;48.818;9.244;2023-04-03T07:16:24;5.50;99.90
2447;DHT22;26430;48.818;9.244;2023-04-03T07:18:49;5.50;99.90
2447;DHT22;26430;48.818;9.244;2023-04-03T07:21:15;5.60;99.90
2447;DHT22;26430;48.818;9.244;2023-04-03T07:23:41;5.60;99.90
2447;DHT22;26430;48.818;9.244;2023-04-03T07:26:06;5.70;99.90
2447;DHT22;26430;48.818;9.244;2023-04-03T07:28:33;5.70;99.90
2447;DHT22;26430;48.818;9.244;2023-04-03T07:31:01;5.70;99.90
2447;DHT22;26430;48.818;9.244;2023-04-03T07:33:27;5.80;99.90
2447;DHT22;26430;48.818;9.244;2023-04-03T07:35:53;5.80;99.90
2447;DHT22;26430;48.818;9.244;2023-04-03T07:38:19;5.80;99.90
2447;DHT22;26430;48.818;9.244;2023-04-03T07:40:48;5.80;99.90
2447;DHT22;26430;48.818;9.244;2023-04-03T07:43:15;5.70;99.90
2447;DHT22;26430;48.818;9.244;2023-04-03T07:45:41;5.80;99.90
2447;DHT22;26430;48.818;9.244;2023-04-03T07:48:07;5.90;99.90
2447;DHT22;26430;48.818;9.244;2023-04-03T07:50:33;6.00;99.90
2447;DHT22;26430;48.818;9.244;2023-04-03T07:52:58;6.00;99.90
2447;DHT22;26430;48.818;9.244;2023-04-03T07:55:25;5.90;99.90
2447;DHT22;26430;48.818;9.244;2023-04-03T07:57:50;5.90;99.90
2447;DHT22;26430;48.818;9.244;2023-04-03T08:00:17;5.80;99.90
2447;DHT22;26430;48.818;9.244;2023-04-03T08:02:44;5.90;99.90
2447;DHT22;26430;48.818;9.244;2023-04-03T08:05:10;6.00;99.90
2447;DHT22;26430;48.818;9.244;2023-04-03T08:07:37;6.00;99.90
2447;DHT22;26430;48.818;9.244;2023-04-03T08:10:03;5.90;99.90
2447;DHT22;26430;48.818;9.244;2023-04-03T08:12:29;5.90;99.90
2447;DHT22;26430;48.818;9.244;2023-04-03T08:14:55;5.90;99.90
2447;DHT22;26430;48.818;9.244;2023-04-03T08:17:21;6.00;99.90
2447;DHT22;26430;48.818;9.244;2023-04-03T08:19:47;6.20;99.90
2447;DHT22;26430;48.818;9.244;2023-04-03T08:22:12;6.40;99.90
2447;DHT22;26430;48.818;9.244;2023-04-03T08:24:38;6.40;99.90
2447;DHT22;26430;48.818;9.244;2023-04-03T08:27:03;6.50;99.90
2447;DHT22;26430;48.818;9.244;2023-04-03T08:29:29;6.70;99.90
2447;DHT22;26430;48.818;9.244;2023-04-03T08:31:55;6.60;99.90
2447;DHT22;26430;48.818;9.244;2023-04-03T08:34:20;6.60;99.90
2447;DHT22;26430;48.818;9.244;2023-04-03T08:36:47;6.60;99.90
2447;DHT22;26430;48.818;9.244;2023-04-03T08:39:13;6.70;99.90
2447;DHT22;26430;48.818;9.244;2023-04-03T08:41:42;6.70;99.90
2447;DHT22;26430;48.818;9.244;2023-04-03T08:44:25;6.80;99.90
2447;DHT22;26430;48.818;9.244;2023-04-03T08:49:44;6.70;99.90
2447;DHT22;26430;48.818;9.244;2023-04-03T08:52:52;6.70;99.90
2447;DHT22;26430;48.818;9.244;2023-04-03T08:55:24;6.90;99.90
2447;DHT22;26430;48.818;9.244;2023-04-03T08:58:00;6.80;99.90
2447;DHT22;26430;48.818;9.244;2023-04-03T09:00:30;6.70;99.90
2447;DHT22;26430;48.818;9.244;2023-04-03T09:02:57;6.60;99.90
2447;DHT22;26430;48.818;9.244;2023-04-03T09:05:41;6.80;99.90
2447;DHT22;26430;48.818;9.244;2023-04-03T09:08:14;6.80;99.90
2447;DHT22;26430;48.818;9.244;2023-04-03T09:10:44;6.80;99.90
2447;DHT22;26430;48.818;9.244;2023-04-03T09:13:32;7.00;99.90
2447;DHT22;26430;48.818;9.244;2023-04-03T09:16:02;6.90;99.90
2447;DHT22;26430;48.818;9.244;2023-04-03T09:18:37;6.60;99.90
2447;DHT22;26430;48.818;9.244;2023-04-03T09:21:25;6.50;99.90
2447;DHT22;26430;48.818;9.244;2023-04-03T09:23:59;6.60;99.90
2447;DHT22;26430;48.818;9.244;2023-04-03T09:26:34;6.60;99.90
2447;DHT22;26430;48.818;9.244;2023-04-03T09:29:04;6.70;99.90
2447;DHT22;26430;48.818;9.244;2023-04-03T09:31:36;6.80;99.90
2447;DHT22;26430;48.818;9.244;2023-04-03T09:34:07;6.80;99.90
2447;DHT22;26430;48.818;9.244;2023-04-03T09:36:42;6.70;99.90
2447;DHT22;26430;48.818;9.244;2023-04-03T09:39:15;6.90;99.90
2447;DHT22;26430;48.818;9.244;2023-04-03T09:41:42;7.10;99.90
2447;DHT22;26430;48.818;9.244;2023-04-03T09:44:26;7.10;99.90
2447;DHT22;26430;48.818;9.244;2023-04-03T09:46:51;7.20;99.90
2447;DHT22;26430;48.818;9.244;2023-04-03T09:49:18;7.10;99.90
2447;DHT22;26430;48.818;9.244;2023-04-03T09:51:44;7.10;99.90
2447;DHT22;26430;48.818;9.244;2023-04-03T09:57:00;7.30;99.90
2447;DHT22;26430;48.818;9.244;2023-04-03T09:59:26;7.20;99.90
2447;DHT22;26430;48.818;9.244;2023-04-03T10:04:52;7.30;99.90
2447;DHT22;26430;48.818;9.244;2023-04-03T10:07:37;7.40;99.90
2447;DHT22;26430;48.818;9.244;2023-04-03T10:10:19;7.40;99.90
2447;DHT22;26430;48.818;9.244;2023-04-03T10:12:45;7.60;99.90
2447;DHT22;26430;48.818;9.244;2023-04-03T10:15:16;7.70;99.90
2447;DHT22;26430;48.818;9.244;2023-04-03T10:17:53;7.80;99.90
2447;DHT22;26430;48.818;9.244;2023-04-03T10:20:37;7.90;99.90
2447;DHT22;26430;48.818;9.244;2023-04-03T10:26:28;7.70;99.90
2447;DHT22;26430;48.818;9.244;2023-04-03T10:29:27;7.60;99.90
2447;DHT22;26430;48.818;9.244;2023-04-03T10:35:12;7.60;99.90
2447;DHT22;26430;48.818;9.244;2023-04-03T10:40:29;7.20;99.90
2447;DHT22;26430;48.818;9.244;2023-04-03T10:43:14;7.30;99.90
2447;DHT22;26430;48.818;9.244;2023-04-03T10:59:21;7.40;99.90
2447;DHT22;26430;48.818;9.244;2023-04-03T11:01:51;7.40;99.90
2447;DHT22;26430;48.818;9.244;2023-04-03T11:04:18;7.50;99.90
2447;DHT22;26430;48.818;9.244;2023-04-03T11:06:49;7.70;99.90
2447;DHT22;26430;48.818;9.244;2023-04-03T11:09:26;7.70;99.90
2447;DHT22;26430;48.818;9.244;2023-04-03T11:12:01;7.80;99.90
2447;DHT22;26430;48.818;9.244;2023-04-03T11:14:30;7.70;99.90
2447;DHT22;26430;48.818;9.244;2023-04-03T11:27:46;7.20;99.90
2447;DHT22;26430;48.818;9.244;2023-04-03T11:30:23;7.40;99.90
2447;DHT22;26430;48.818;9.244;2023-04-03T11:33:05;7.50;99.90
2447;DHT22;26430;48.818;9.244;2023-04-03T11:35:36;7.60;99.90
2447;DHT22;26430;48.818;9.244;2023-04-03T11:38:03;7.60;99.90
2447;DHT22;26430;48.818;9.244;2023-04-03T11:40:33;7.70;99.90
2447;DHT22;26430;48.818;9.244;2023-04-03T11:45:27;7.90;99.90
2447;DHT22;26430;48.818;9.244;2023-04-03T12:00:48;8.30;99.90
2447;DHT22;26430;48.818;9.244;2023-04-03T12:21:16;7.90;99.90
2447;DHT22;26430;48.818;9.244;2023-04-03T12:24:24;8.30;99.90
2447;DHT22;26430;48.818;9.244;2023-04-03T12:37:21;7.90;99.90
2447;DHT22;26430;48.818;9.244;2023-04-03T12:45:09;8.20;99.90
2447;DHT22;26430;48.818;9.244;2023-04-03T12:47:42;8.20;99.90
2447;DHT22;26430;48.818;9.244;2023-04-03T12:50:30;8.10;99.90
2447;DHT22;26430;48.818;9.244;2023-04-03T12:53:06;7.90;99.90
2447;DHT22;26430;48.818;9.244;2023-04-03T12:55:32;8.00;99.90
2447;DHT22;26430;48.818;9.244;2023-04-03T12:58:21;8.00;99.90
2447;DHT22;26430;48.818;9.244;2023-04-03T13:01:02;8.10;99.90
2447;DHT22;26430;48.818;9.244;2023-04-03T13:03:28;8.20;99.90
2447;DHT22;26430;48.818;9.244;2023-04-03T13:06:00;8.40;99.90
2447;DHT22;26430;48.818;9.244;2023-04-03T13:08:26;8.40;99.90
2447;DHT22;26430;48.818;9.244;2023-04-03T13:10:55;8.50;99.90
2447;DHT22;26430;48.818;9.244;2023-04-03T13:13:21;8.50;99.90
2447;DHT22;26430;48.818;9.244;2023-04-03T13:15:48;8.50;99.90
2447;DHT22;26430;48.818;9.244;2023-04-03T13:18:33;8.50;99.90
2447;DHT22;26430;48.818;9.244;2023-04-03T13:21:05;8.50;99.90
2447;DHT22;26430;48.818;9.244;2023-04-03T13:23:35;8.30;99.90
2447;DHT22;26430;48.818;9.244;2023-04-03T13:26:01;8.30;99.90
2447;DHT22;26430;48.818;9.244;2023-04-03T13:28:29;8.20;99.90
2447;DHT22;26430;48.818;9.244;2023-04-03T13:33:25;8.50;99.90
2447;DHT22;26430;48.818;9.244;2023-04-03T13:36:03;8.70;99.90
2447;DHT22;26430;48.818;9.244;2023-04-03T13:38:31;8.80;99.70
2447;DHT22;26430;48.818;9.244;2023-04-03T13:41:01;8.60;99.20
2447;DHT22;26430;48.818;9.244;2023-04-03T13:43:33;8.90;98.80
2447;DHT22;26430;48.818;9.244;2023-04-03T13:48:52;9.00;98.00
2447;DHT22;26430;48.818;9.244;2023-04-03T13:51:24;8.80;98.90
2447;DHT22;26430;48.818;9.244;2023-04-03T13:54:01;8.80;98.40
2447;DHT22;26430;48.818;9.244;2023-04-03T13:56:39;8.60;98.90
2447;DHT22;26430;48.818;9.244;2023-04-03T14:01:53;8.50;99.60
2447;DHT22;26430;48.818;9.244;2023-04-03T14:04:20;8.60;99.20
2447;DHT22;26430;48.818;9.244;2023-04-03T14:06:47;8.70;98.80
2447;DHT22;26430;48.818;9.244;2023-04-03T14:09:13;8.70;97.90
2447;DHT22;26430;48.818;9.244;2023-04-03T14:11:40;8.70;98.40
2447;DHT22;26430;48.818;9.244;2023-04-03T14:14:20;8.80;99.10
2447;DHT22;26430;48.818;9.244;2023-04-03T14:16:51;8.80;98.00
2447;DHT22;26430;48.818;9.244;2023-04-03T14:19:22;8.60;97.90
2447;DHT22;26430;48.818;9.244;2023-04-03T14:21:48;8.60;98.20
2447;DHT22;26430;48.818;9.244;2023-04-03T14:24:14;8.60;98.10
2447;DHT22;26430;48.818;9.244;2023-04-03T14:26:40;8.60;98.80
2447;DHT22;26430;48.818;9.244;2023-04-03T14:29:06;8.60;98.70
2447;DHT22;26430;48.818;9.244;2023-04-03T14:31:32;8.80;97.10
2447;DHT22;26430;48.818;9.244;2023-04-03T14:33:57;8.90;95.80
2447;DHT22;26430;48.818;9.244;2023-04-03T14:36:25;9.20;95.50
2447;DHT22;26430;48.818;9.244;2023-04-03T14:38:52;9.30;95.50
2447;DHT22;26430;48.818;9.244;2023-04-03T14:41:21;9.00;96.30
2447;DHT22;26430;48.818;9.244;2023-04-03T14:43:49;8.80;96.50
2447;DHT22;26430;48.818;9.244;2023-04-03T14:46:22;8.80;97.30
2447;DHT22;26430;48.818;9.244;2023-04-03T14:48:49;8.90;95.70
2447;DHT22;26430;48.818;9.244;2023-04-03T14:51:15;9.00;95.90
2447;DHT22;26430;48.818;9.244;2023-04-03T14:53:43;8.90;95.60
2447;DHT22;26430;48.818;9.244;2023-04-03T14:56:14;8.80;95.90
2447;DHT22;26430;48.818;9.244;2023-04-03T14:58:41;8.80;94.60
2447;DHT22;26430;48.818;9.244;2023-04-03T15:01:08;8.80;95.00
2447;DHT22;26430;48.818;9.244;2023-04-03T15:03:34;8.80;95.20
2447;DHT22;26430;48.818;9.244;2023-04-03T15:05:59;8.70;95.10
2447;DHT22;26430;48.818;9.244;2023-04-03T15:08:26;8.50;95.60
2447;DHT22;26430;48.818;9.244;2023-04-03T15:10:55;8.60;95.40
2447;DHT22;26430;48.818;9.244;2023-04-03T15:13:22;8.70;93.80
2447;DHT22;26430;48.818;9.244;2023-04-03T15:15:49;9.00;94.10
2447;DHT22;26430;48.818;9.244;2023-04-03T15:18:19;8.90;94.10
2447;DHT22;26430;48.818;9.244;2023-04-03T15:20:45;8.70;94.50
2447;DHT22;26430;48.818;9.244;2023-04-03T15:23:15;8.60;94.10
2447;DHT22;26430;48.818;9.244;2023-04-03T15:25:46;8.60;94.00
2447;DHT22;26430;48.818;9.244;2023-04-03T15:30:48;8.60;94.50
2447;DHT22;26430;48.818;9.244;2023-04-03T15:33:14;8.60;94.40
2447;DHT22;26430;48.818;9.244;2023-04-03T15:35:41;8.60;94.30
2447;DHT22;26430;48.818;9.244;2023-04-03T15:38:07;8.50;94.70
2447;DHT22;26430;48.818;9.244;2023-04-03T15:40:32;8.50;94.10
2447;DHT22;26430;48.818;9.244;2023-04-03T15:42:58;8.40;93.70
2447;DHT22;26430;48.818;9.244;2023-04-03T15:45:23;8.40;93.10
2447;DHT22;26430;48.818;9.244;2023-04-03T15:47:49;8.60;93.70
2447;DHT22;26430;48.818;9.244;2023-04-03T15:50:15;8.60;93.80
2447;DHT22;26430;48.818;9.244;2023-04-03T15:52:42;8.80;93.20
2447;DHT22;26430;48.818;9.244;2023-04-03T15:55:08;8.90;93.30
2447;DHT22;26430;48.818;9.244;2023-04-03T15:57:34;9.10;91.70
2447;DHT22;26430;48.818;9.244;2023-04-03T16:00:00;9.40;91.40
2447;DHT22;26430;48.818;9.244;2023-04-03T16:02:25;9.60;92.50
2447;DHT22;26430;48.818;9.244;2023-04-03T16:04:54;9.90;91.20
2447;DHT22;26430;48.818;9.244;2023-04-03T16:07:20;9.70;90.90
2447;DHT22;26430;48.818;9.244;2023-04-03T16:09:45;9.90;90.90
2447;DHT22;26430;48.818;9.244;2023-04-03T16:12:11;9.70;90.40
2447;DHT22;26430;48.818;9.244;2023-04-03T16:14:37;9.60;90.80
2447;DHT22;26430;48.818;9.244;2023-04-03T16:17:02;9.30;90.60
2447;DHT22;26430;48.818;9.244;2023-04-03T16:19:29;8.80;90.70
2447;DHT22;26430;48.818;9.244;2023-04-03T16:21:55;8.40;91.40
2447;DHT22;26430;48.818;9.244;2023-04-03T16:24:21;8.20;92.10
2447;DHT22;26430;48.818;9.244;2023-04-03T16:26:47;8.30;92.50
2447;DHT22;26430;48.818;9.244;2023-04-03T16:29:12;8.50;92.30
2447;DHT22;26430;48.818;9.244;2023-04-03T16:31:38;8.80;92.50
2447;DHT22;26430;48.818;9.244;2023-04-03T16:34:04;9.00;91.30
2447;DHT22;26430;48.818;9.244;2023-04-03T16:36:29;9.30;92.50
2447;DHT22;26430;48.818;9.244;2023-04-03T16:38:55;9.50;91.70
2447;DHT22;26430;48.818;9.244;2023-04-03T16:41:21;9.60;90.70
2447;DHT22;26430;48.818;9.244;2023-04-03T16:43:46;9.40;90.20
2447;DHT22;26430;48.818;9.244;2023-04-03T16:46:12;9.20;90.30
2447;DHT22;26430;48.818;9.244;2023-04-03T16:48:37;9.10;90.50
2447;DHT22;26430;48.818;9.244;2023-04-03T16:51:03;9.10;91.40
2447;DHT22;26430;48.818;9.244;2023-04-03T16:53:29;9.20;91.60
2447;DHT22;26430;48.818;9.244;2023-04-03T16:55:57;9.10;90.50
2447;DHT22;26430;48.818;9.244;2023-04-03T16:58:24;9.00;90.50
2447;DHT22;26430;48.818;9.244;2023-04-03T17:00:50;9.00;90.00
2447;DHT22;26430;48.818;9.244;2023-04-03T17:03:15;8.90;90.40
2447;DHT22;26430;48.818;9.244;2023-04-03T17:05:41;8.80;90.20
2447;DHT22;26430;48.818;9.244;2023-04-03T17:08:06;8.70;90.40
2447;DHT22;26430;48.818;9.244;2023-04-03T17:10:32;8.60;90.90
2447;DHT22;26430;48.818;9.244;2023-04-03T17:13:00;8.50;90.70
2447;DHT22;26430;48.818;9.244;2023-04-03T17:15:25;8.10;91.20
2447;DHT22;26430;48.818;9.244;2023-04-03T17:17:52;8.10;91.20
2447;DHT22;26430;48.818;9.244;2023-04-03T17:20:18;8.10;91.40
2447;DHT22;26430;48.818;9.244;2023-04-03T17:22:44;8.00;92.10
2447;DHT22;26430;48.818;9.244;2023-04-03T17:25:10;7.90;91.70
2447;DHT22;26430;48.818;9.244;2023-04-03T17:27:35;7.80;92.70
2447;DHT22;26430;48.818;9.244;2023-04-03T17:30:02;7.60;92.50
2447;DHT22;26430;48.818;9.244;2023-04-03T17:32:28;7.60;92.60
2447;DHT22;26430;48.818;9.244;2023-04-03T17:34:53;7.30;93.00
2447;DHT22;26430;48.818;9.244;2023-04-03T17:37:19;7.30;93.10
2447;DHT22;26430;48.818;9.244;2023-04-03T17:39:44;7.20;93.30
2447;DHT22;26430;48.818;9.244;2023-04-03T17:42:11;7.20;93.60
2447;DHT22;26430;48.818;9.244;2023-04-03T17:44:37;7.30;94.00
2447;DHT22;26430;48.818;9.244;2023-04-03T17:47:02;7.20;94.90
2447;DHT22;26430;48.818;9.244;2023-04-03T17:49:28;7.10;94.30
2447;DHT22;26430;48.818;9.244;2023-04-03T17:51:54;7.20;93.70
2447;DHT22;26430;48.818;9.244;2023-04-03T17:54:20;7.10;93.70
2447;DHT22;26430;48.818;9.244;2023-04-03T17:56:45;7.10;93.20